createdAt,value
2023-08-15T00:01:17.899Z,21.05
2023-08-15T00:03:48.361Z,21.05
2023-08-15T00:06:16.715Z,21.06
2023-08-15T00:08:45.181Z,20.97
2023-08-15T00:11:13.477Z,20.97
2023-08-15T00:13:41.930Z,20.98
2023-08-15T00:16:10.220Z,20.94
2023-08-15T00:18:39.629Z,20.95
2023-08-15T00:21:09.402Z,20.92
2023-08-15T00:23:37.927Z,20.92
2023-08-15T00:26:06.111Z,20.87
2023-08-15T00:28:34.278Z,20.68
2023-08-15T00:31:02.601Z,20.77
2023-08-15T00:33:30.751Z,20.80
2023-08-15T00:35:58.843Z,20.77
2023-08-15T00:38:28.410Z,20.75
2023-08-15T00:40:56.516Z,20.82
2023-08-15T00:43:24.753Z,20.79
2023-08-15T00:45:53.505Z,20.79
2023-08-15T00:48:24.108Z,20.66
2023-08-15T00:50:52.399Z,20.74
2023-08-15T00:53:22.074Z,20.67
2023-08-15T00:55:53.265Z,20.69
2023-08-15T00:58:22.415Z,20.67
2023-08-15T01:00:51.881Z,20.65
2023-08-15T01:03:20.752Z,20.63
2023-08-15T01:05:50.033Z,20.60
2023-08-15T01:08:19.265Z,20.57
2023-08-15T01:10:47.449Z,20.54
2023-08-15T01:13:24.520Z,20.53
2023-08-15T01:15:54.486Z,20.52
2023-08-15T01:18:29.433Z,20.45
2023-08-15T01:20:58.680Z,20.42
2023-08-15T01:23:36.449Z,20.44
2023-08-15T01:26:04.579Z,20.44
2023-08-15T01:28:33.565Z,20.32
2023-08-15T01:31:08.088Z,20.37
2023-08-15T01:33:40.245Z,20.34
2023-08-15T01:36:14.389Z,20.25
2023-08-15T01:38:47.258Z,20.19
2023-08-15T01:41:20.525Z,20.14
2023-08-15T01:43:50.249Z,20.20
2023-08-15T01:46:18.624Z,20.24
2023-08-15T01:48:46.872Z,20.17
2023-08-15T01:51:15.866Z,20.23
2023-08-15T01:53:49.559Z,20.18
2023-08-15T01:56:17.591Z,20.13
2023-08-15T01:58:45.598Z,20.12
2023-08-15T02:01:13.956Z,20.09
2023-08-15T02:03:42.140Z,20.08
2023-08-15T02:06:10.535Z,20.06
2023-08-15T02:08:38.650Z,20.01
2023-08-15T02:11:08.393Z,20.03
2023-08-15T02:13:36.577Z,19.98
2023-08-15T02:16:05.082Z,19.88
2023-08-15T02:18:34.406Z,19.85
2023-08-15T02:21:02.455Z,19.77
2023-08-15T02:23:31.817Z,19.79
2023-08-15T02:26:00.209Z,19.78
2023-08-15T02:28:29.797Z,19.74
2023-08-15T02:30:58.223Z,19.66
2023-08-15T02:33:27.574Z,19.72
2023-08-15T02:35:56.134Z,19.68
2023-08-15T02:38:24.361Z,19.71
2023-08-15T02:40:52.489Z,19.69
2023-08-15T02:43:20.805Z,19.63
2023-08-15T02:45:50.222Z,19.63
2023-08-15T02:48:18.511Z,19.66
2023-08-15T02:50:47.656Z,19.68
2023-08-15T02:53:16.043Z,19.61
2023-08-15T02:55:44.437Z,19.64
2023-08-15T02:58:12.516Z,19.63
2023-08-15T03:00:40.614Z,19.63
2023-08-15T03:03:12.328Z,19.59
2023-08-15T03:05:41.629Z,19.55
2023-08-15T03:08:09.842Z,19.58
2023-08-15T03:10:40.341Z,19.62
2023-08-15T03:13:08.584Z,19.54
2023-08-15T03:15:38.376Z,19.46
2023-08-15T03:18:06.904Z,19.40
2023-08-15T03:20:36.391Z,19.29
2023-08-15T03:23:04.762Z,19.41
2023-08-15T03:25:32.866Z,19.42
2023-08-15T03:28:01.077Z,19.15
2023-08-15T03:30:29.307Z,19.33
2023-08-15T03:32:57.536Z,19.34
2023-08-15T03:35:25.681Z,19.27
2023-08-15T03:37:55.518Z,19.32
2023-08-15T03:40:23.707Z,19.21
2023-08-15T03:42:51.856Z,19.28
2023-08-15T03:45:20.104Z,19.30
2023-08-15T03:47:49.593Z,19.32
2023-08-15T03:50:17.734Z,19.23
2023-08-15T03:52:45.861Z,19.32
2023-08-15T03:55:15.963Z,19.29
2023-08-15T03:57:44.185Z,19.35
2023-08-15T04:00:14.667Z,19.30
2023-08-15T04:02:43.102Z,19.29
2023-08-15T04:05:12.520Z,19.31
2023-08-15T04:07:41.443Z,19.30
2023-08-15T04:10:13.086Z,19.31
2023-08-15T04:12:42.818Z,19.30
2023-08-15T04:15:11.814Z,19.33
2023-08-15T04:17:40.462Z,19.36
2023-08-15T04:20:10.918Z,19.35
2023-08-15T04:22:39.473Z,19.32
2023-08-15T04:25:09.402Z,19.24
2023-08-15T04:27:37.829Z,19.31
2023-08-15T04:30:10.373Z,19.27
2023-08-15T04:32:38.605Z,19.25
2023-08-15T04:35:07.444Z,19.24
2023-08-15T04:37:35.876Z,19.28
2023-08-15T04:40:04.854Z,19.27
2023-08-15T04:42:33.163Z,19.36
2023-08-15T04:45:01.605Z,19.34
2023-08-15T04:47:31.134Z,19.38
2023-08-15T04:49:59.413Z,19.40
2023-08-15T04:52:27.928Z,19.42
2023-08-15T04:54:56.488Z,19.51
2023-08-15T04:57:25.154Z,19.55
2023-08-15T04:59:53.773Z,19.60
2023-08-15T05:02:22.517Z,19.62
2023-08-15T05:04:52.446Z,19.68
2023-08-15T05:07:21.086Z,19.73
2023-08-15T05:09:49.822Z,19.72
2023-08-15T05:12:18.230Z,19.85
2023-08-15T05:14:46.430Z,19.90
2023-08-15T05:17:14.974Z,20.03
2023-08-15T05:19:43.416Z,20.00
2023-08-15T05:22:13.152Z,20.21
2023-08-15T05:24:41.580Z,20.32
2023-08-15T05:27:14.093Z,20.30
2023-08-15T05:29:43.601Z,20.44
2023-08-15T05:32:11.964Z,20.51
2023-08-15T05:34:40.787Z,20.52
2023-08-15T05:37:08.990Z,20.61
2023-08-15T05:39:38.973Z,20.63
2023-08-15T05:42:07.361Z,20.72
2023-08-15T05:44:35.912Z,20.77
2023-08-15T05:47:04.113Z,20.80
2023-08-15T05:49:32.994Z,20.75
2023-08-15T05:52:02.799Z,20.84
2023-08-15T05:54:34.682Z,20.95
2023-08-15T05:57:04.805Z,20.94
2023-08-15T05:59:33.053Z,21.12
2023-08-15T06:02:02.924Z,21.05
2023-08-15T06:04:31.577Z,21.25
2023-08-15T06:07:00.423Z,21.32
2023-08-15T06:09:28.802Z,21.50
2023-08-15T06:11:56.989Z,21.60
2023-08-15T06:14:27.612Z,21.66
2023-08-15T06:16:56.345Z,21.76
2023-08-15T06:19:25.409Z,21.84
2023-08-15T06:21:54.061Z,21.93
2023-08-15T06:24:22.643Z,21.91
2023-08-15T06:26:51.643Z,22.01
2023-08-15T06:29:20.052Z,22.17
2023-08-15T06:31:49.944Z,22.16
2023-08-15T06:34:18.685Z,22.31
2023-08-15T06:36:48.335Z,22.47
2023-08-15T06:39:16.854Z,22.63
2023-08-15T06:41:45.735Z,22.76
2023-08-15T06:44:14.034Z,22.96
2023-08-15T06:46:43.343Z,23.00
2023-08-15T06:49:13.010Z,23.23
2023-08-15T06:51:41.592Z,23.66
2023-08-15T06:54:10.210Z,23.80
2023-08-15T06:56:38.773Z,24.05
2023-08-15T06:59:07.462Z,24.27
2023-08-15T07:01:35.642Z,24.60
2023-08-15T07:04:03.978Z,24.64
2023-08-15T07:06:33.809Z,24.54
2023-08-15T07:09:01.927Z,24.88
2023-08-15T07:11:30.177Z,25.16
2023-08-15T07:13:58.467Z,25.17
2023-08-15T07:16:28.035Z,24.86
2023-08-15T07:18:56.527Z,25.06
2023-08-15T07:21:28.725Z,25.23
2023-08-15T07:23:58.437Z,25.35
2023-08-15T07:26:26.621Z,25.41
2023-08-15T07:28:55.470Z,25.14
2023-08-15T07:31:23.820Z,25.37
2023-08-15T07:33:52.311Z,25.42
2023-08-15T07:36:21.393Z,25.24
2023-08-15T07:38:49.850Z,25.24
2023-08-15T07:41:19.886Z,25.20
2023-08-15T07:43:48.757Z,25.28
2023-08-15T07:46:17.353Z,25.30
2023-08-15T07:48:46.741Z,25.53
2023-08-15T07:51:16.661Z,25.73
2023-08-15T07:53:45.389Z,25.73
2023-08-15T07:56:14.096Z,25.44
2023-08-15T07:58:44.692Z,25.48
2023-08-15T08:01:13.503Z,25.54
2023-08-15T08:03:43.790Z,25.77
2023-08-15T08:06:31.743Z,25.78
2023-08-15T08:09:00.858Z,25.99
2023-08-15T08:11:29.347Z,26.11
2023-08-15T08:13:59.876Z,26.25
2023-08-15T08:16:28.876Z,26.35
2023-08-15T08:18:59.483Z,26.44
2023-08-15T08:21:28.634Z,26.62
2023-08-15T08:23:57.417Z,26.66
2023-08-15T08:26:25.798Z,26.73
2023-08-15T08:28:54.556Z,26.79
2023-08-15T08:31:24.407Z,26.77
2023-08-15T08:33:52.974Z,27.10
2023-08-15T08:36:21.687Z,27.08
2023-08-15T08:38:50.050Z,26.93
2023-08-15T08:41:19.948Z,27.17
2023-08-15T08:43:49.135Z,27.36
2023-08-15T08:46:18.764Z,27.41
2023-08-15T08:48:50.676Z,27.36
2023-08-15T08:51:22.016Z,27.72
2023-08-15T08:53:50.360Z,27.69
2023-08-15T08:56:21.308Z,27.75
2023-08-15T08:58:52.379Z,27.82
2023-08-15T09:01:21.134Z,27.98
2023-08-15T09:03:51.819Z,28.16
2023-08-15T09:06:20.810Z,28.38
2023-08-15T09:08:49.286Z,28.18
2023-08-15T09:11:18.091Z,27.98
2023-08-15T09:13:49.728Z,28.24
2023-08-15T09:16:18.691Z,28.04
2023-08-15T09:18:50.810Z,28.10
2023-08-15T09:21:19.284Z,28.43
2023-08-15T09:23:48.646Z,28.43
2023-08-15T09:26:18.012Z,28.61
2023-08-15T09:28:47.127Z,28.40
2023-08-15T09:31:15.557Z,28.49
2023-08-15T09:33:44.274Z,28.66
2023-08-15T09:36:14.397Z,28.28
2023-08-15T09:38:42.949Z,28.44
2023-08-15T09:41:14.464Z,28.14
2023-08-15T09:43:52.774Z,28.24
2023-08-15T09:46:24.732Z,28.03
2023-08-15T09:48:54.657Z,28.07
2023-08-15T09:51:26.556Z,28.29
2023-08-15T09:53:55.410Z,28.24
2023-08-15T09:56:24.131Z,28.04
2023-08-15T09:58:52.361Z,28.15
2023-08-15T10:01:26.141Z,28.22
2023-08-15T10:03:56.354Z,28.36
2023-08-15T10:06:29.923Z,28.45
2023-08-15T10:09:00.942Z,28.52
2023-08-15T10:11:31.871Z,28.38
2023-08-15T10:14:00.292Z,28.54
2023-08-15T10:16:29.126Z,28.46
2023-08-15T10:19:01.453Z,28.50
2023-08-15T10:21:49.423Z,28.55
2023-08-15T10:24:17.762Z,28.58
2023-08-15T10:26:47.379Z,28.51
2023-08-15T10:29:16.079Z,28.44
2023-08-15T10:31:45.289Z,28.60
2023-08-15T10:34:15.893Z,28.61
2023-08-15T10:36:48.093Z,28.79
2023-08-15T10:39:17.594Z,29.12
2023-08-15T10:41:46.034Z,29.21
2023-08-15T10:44:14.331Z,29.10
2023-08-15T10:46:42.902Z,29.04
2023-08-15T10:49:13.078Z,29.16
2023-08-15T10:51:43.727Z,29.15
2023-08-15T10:54:16.031Z,29.36
2023-08-15T10:56:45.484Z,29.65
2023-08-15T10:59:16.392Z,29.77
2023-08-15T11:01:46.443Z,29.59
2023-08-15T11:04:16.690Z,29.85
2023-08-15T11:06:46.978Z,30.02
2023-08-15T11:09:17.168Z,29.85
2023-08-15T11:11:46.532Z,30.07
2023-08-15T11:14:19.640Z,29.87
2023-08-15T11:16:49.390Z,29.77
2023-08-15T11:19:17.959Z,29.88
2023-08-15T11:21:46.286Z,30.04
2023-08-15T11:24:14.439Z,30.22
2023-08-15T11:26:44.120Z,29.88
2023-08-15T11:29:14.262Z,29.94
2023-08-15T11:31:43.679Z,30.17
2023-08-15T11:34:13.408Z,30.26
2023-08-15T11:36:42.120Z,30.20
2023-08-15T11:39:14.458Z,30.18
2023-08-15T11:41:46.275Z,30.20
2023-08-15T11:44:14.428Z,30.11
2023-08-15T11:49:18.719Z,30.20
2023-08-15T11:51:47.884Z,30.00
2023-08-15T11:54:16.518Z,30.09
2023-08-15T11:56:53.202Z,30.12
2023-08-15T11:59:21.830Z,30.09
2023-08-15T12:01:52.274Z,30.23
2023-08-15T12:04:21.666Z,30.10
2023-08-15T12:06:52.130Z,30.05
2023-08-15T12:09:21.068Z,30.33
2023-08-15T12:11:50.116Z,30.20
2023-08-15T12:14:23.783Z,30.01
2023-08-15T12:16:52.117Z,30.16
2023-08-15T12:19:23.013Z,30.01
2023-08-15T12:21:54.322Z,30.37
2023-08-15T12:24:23.998Z,30.41
2023-08-15T12:26:52.405Z,30.44
2023-08-15T12:29:20.808Z,30.39
2023-08-15T12:32:11.093Z,30.30
2023-08-15T12:34:39.626Z,30.31
2023-08-15T12:37:07.830Z,30.14
2023-08-15T12:39:36.275Z,30.12
2023-08-15T12:42:05.502Z,29.92
2023-08-15T12:44:33.856Z,29.76
2023-08-15T12:47:02.421Z,29.81
2023-08-15T12:49:32.498Z,29.67
2023-08-15T12:52:00.974Z,29.65
2023-08-15T12:54:29.292Z,29.72
2023-08-15T12:56:58.023Z,29.95
2023-08-15T12:59:26.416Z,29.96
2023-08-15T13:01:55.168Z,29.94
2023-08-15T13:04:23.575Z,29.63
2023-08-15T13:06:53.480Z,29.71
2023-08-15T13:09:22.029Z,29.65
2023-08-15T13:11:50.260Z,29.84
2023-08-15T13:14:22.554Z,29.73
2023-08-15T13:16:53.394Z,29.74
2023-08-15T13:19:21.644Z,29.35
2023-08-15T13:21:50.153Z,29.51
2023-08-15T13:24:20.190Z,29.45
2023-08-15T13:26:48.581Z,29.54
2023-08-15T13:29:16.870Z,29.44
2023-08-15T13:31:45.226Z,29.30
2023-08-15T13:34:14.113Z,29.22
2023-08-15T13:36:42.306Z,29.07
2023-08-15T13:39:11.686Z,29.12
2023-08-15T13:41:42.142Z,29.24
2023-08-15T13:44:11.430Z,29.33
2023-08-15T13:46:39.782Z,29.36
2023-08-15T13:49:07.968Z,29.03
2023-08-15T13:51:36.341Z,28.99
2023-08-15T13:54:06.370Z,28.92
2023-08-15T13:56:34.474Z,28.80
2023-08-15T13:59:04.360Z,29.12
2023-08-15T14:01:34.512Z,29.09
2023-08-15T14:04:03.693Z,28.91
2023-08-15T14:06:32.218Z,28.96
2023-08-15T14:09:00.761Z,28.63
2023-08-15T14:11:29.664Z,28.75
2023-08-15T14:13:57.973Z,28.49
2023-08-15T14:16:28.559Z,28.60
2023-08-15T14:18:58.380Z,28.43
2023-08-15T14:21:26.995Z,28.18
2023-08-15T14:23:55.571Z,28.00
2023-08-15T14:26:23.989Z,28.12
2023-08-15T14:28:54.494Z,28.28
2023-08-15T14:31:23.054Z,28.49
2023-08-15T14:33:53.673Z,28.57
2023-08-15T14:36:22.513Z,28.55
2023-08-15T14:38:52.800Z,28.49
2023-08-15T14:41:23.152Z,28.73
2023-08-15T14:43:51.857Z,28.42
2023-08-15T14:46:20.918Z,28.25
2023-08-15T14:48:49.389Z,28.14
2023-08-15T14:51:21.342Z,27.93
2023-08-15T14:53:49.865Z,28.02
2023-08-15T14:56:18.740Z,28.02
2023-08-15T14:58:47.464Z,27.88
2023-08-15T15:01:16.134Z,28.03
2023-08-15T15:03:44.922Z,28.04
2023-08-15T15:06:14.198Z,28.15
2023-08-15T15:08:44.307Z,28.08
2023-08-15T15:11:14.418Z,28.22
2023-08-15T15:13:45.365Z,28.33
2023-08-15T15:16:15.005Z,28.22
2023-08-15T15:18:44.298Z,28.36
2023-08-15T15:21:12.667Z,28.24
2023-08-15T15:23:45.771Z,28.29
2023-08-15T15:26:15.510Z,28.51
2023-08-15T15:28:43.994Z,28.29
2023-08-15T15:31:12.812Z,27.97
2023-08-15T15:33:42.668Z,27.89
2023-08-15T15:36:11.752Z,27.64
2023-08-15T15:38:43.466Z,27.55
2023-08-15T15:41:13.476Z,27.80
2023-08-15T15:43:42.060Z,28.12
2023-08-15T15:46:10.877Z,28.17
2023-08-15T15:48:39.958Z,28.25
2023-08-15T15:51:08.475Z,28.17
2023-08-15T15:53:37.289Z,27.87
2023-08-15T15:56:06.341Z,28.16
2023-08-15T15:58:36.293Z,28.30
2023-08-15T16:01:04.669Z,28.63
2023-08-15T16:03:34.143Z,28.54
2023-08-15T16:06:02.803Z,28.64
2023-08-15T16:08:31.105Z,28.75
2023-08-15T16:10:59.607Z,28.74
2023-08-15T16:13:28.496Z,28.61
2023-08-15T16:15:58.273Z,28.53
2023-08-15T16:18:27.508Z,29.16
2023-08-15T16:20:55.617Z,28.95
2023-08-15T16:23:24.520Z,29.13
2023-08-15T16:25:53.897Z,28.92
2023-08-15T16:28:22.268Z,28.70
2023-08-15T16:30:50.877Z,28.62
2023-08-15T16:33:21.170Z,28.74
2023-08-15T16:35:49.639Z,28.52
2023-08-15T16:38:18.461Z,28.43
2023-08-15T16:40:46.866Z,28.34
2023-08-15T16:43:16.704Z,28.33
2023-08-15T16:45:46.630Z,28.18
2023-08-15T16:48:16.437Z,28.13
2023-08-15T16:50:46.558Z,27.90
2023-08-15T16:53:15.199Z,27.77
2023-08-15T16:55:46.886Z,27.73
2023-08-15T16:58:16.007Z,27.62
2023-08-15T17:00:44.624Z,27.65
2023-08-15T17:03:13.346Z,27.59
2023-08-15T17:05:41.776Z,27.64
2023-08-15T17:08:11.710Z,27.60
2023-08-15T17:10:40.202Z,27.60
2023-08-15T17:13:08.679Z,27.50
2023-08-15T17:15:36.905Z,27.51
2023-08-15T17:18:06.027Z,27.62
2023-08-15T17:20:34.964Z,27.62
2023-08-15T17:23:03.130Z,27.53
2023-08-15T17:25:33.013Z,27.53
2023-08-15T17:28:01.357Z,27.62
2023-08-15T17:30:31.328Z,27.71
2023-08-15T17:33:00.293Z,27.63
2023-08-15T17:35:28.889Z,27.67
2023-08-15T17:37:58.204Z,27.63
2023-08-15T17:40:26.549Z,27.60
2023-08-15T17:42:56.604Z,27.69
2023-08-15T17:45:25.015Z,27.47
2023-08-15T17:47:53.845Z,27.50
2023-08-15T17:50:22.323Z,27.44
2023-08-15T17:52:51.187Z,27.35
2023-08-15T17:55:19.442Z,27.49
2023-08-15T17:57:48.690Z,27.54
2023-08-15T18:00:19.403Z,27.53
2023-08-15T18:02:47.776Z,27.54
2023-08-15T18:05:17.240Z,27.53
2023-08-15T18:07:45.976Z,27.50
2023-08-15T18:10:14.623Z,27.56
2023-08-15T18:12:44.101Z,27.55
2023-08-15T18:15:13.738Z,27.49
2023-08-15T18:17:43.572Z,27.40
2023-08-15T18:20:12.324Z,27.34
2023-08-15T18:22:40.782Z,27.31
2023-08-15T18:25:09.990Z,27.32
2023-08-15T18:27:38.306Z,27.17
2023-08-15T18:30:08.016Z,27.10
2023-08-15T18:32:36.719Z,26.92
2023-08-15T18:35:08.521Z,26.88
2023-08-15T18:37:36.678Z,26.75
2023-08-15T18:40:05.308Z,26.65
2023-08-15T18:42:33.621Z,26.61
2023-08-15T18:45:01.916Z,26.56
2023-08-15T18:47:30.288Z,26.50
2023-08-15T18:49:58.443Z,26.37
2023-08-15T18:52:30.344Z,26.38
2023-08-15T18:54:59.570Z,26.33
2023-08-15T18:57:28.605Z,26.29
2023-08-15T18:59:57.119Z,26.18
2023-08-15T19:02:26.022Z,26.07
2023-08-15T19:04:59.218Z,26.07
2023-08-15T19:07:29.259Z,26.02
2023-08-15T19:09:58.064Z,26.13
2023-08-15T19:12:28.678Z,26.01
2023-08-15T19:15:02.786Z,25.98
2023-08-15T19:17:31.174Z,25.98
2023-08-15T19:20:00.131Z,25.85
2023-08-15T19:22:30.059Z,25.81
2023-08-15T19:24:58.343Z,25.80
2023-08-15T19:27:27.252Z,25.75
2023-08-15T19:29:56.177Z,25.64
2023-08-15T19:32:24.828Z,25.59
2023-08-15T19:34:53.479Z,25.46
2023-08-15T19:37:36.240Z,25.40
2023-08-15T19:40:10.428Z,25.53
2023-08-15T19:42:42.760Z,25.54
2023-08-15T19:45:15.436Z,25.76
2023-08-15T19:47:44.235Z,25.64
2023-08-15T19:50:12.976Z,25.57
2023-08-15T19:52:41.198Z,25.37
2023-08-15T19:55:12.139Z,25.35
2023-08-15T19:57:41.417Z,25.28
2023-08-15T20:00:11.841Z,25.20
2023-08-15T20:02:41.293Z,25.25
2023-08-15T20:05:10.806Z,25.22
2023-08-15T20:07:40.202Z,25.20
2023-08-15T20:10:12.508Z,25.18
2023-08-15T20:12:41.472Z,25.06
2023-08-15T20:15:10.881Z,24.96
2023-08-15T20:17:39.498Z,24.86
2023-08-15T20:20:09.132Z,24.86
2023-08-15T20:22:37.743Z,24.86
2023-08-15T20:25:07.186Z,24.89
2023-08-15T20:27:36.974Z,24.85
2023-08-15T20:30:06.258Z,24.86
2023-08-15T20:32:34.603Z,24.80
2023-08-15T20:35:03.332Z,24.76
2023-08-15T20:37:32.665Z,24.76
2023-08-15T20:40:00.878Z,24.69
2023-08-15T20:42:29.010Z,24.61
2023-08-15T20:44:59.037Z,24.54
2023-08-15T20:47:27.249Z,24.48
2023-08-15T20:49:55.292Z,24.36
2023-08-15T20:52:24.060Z,24.16
2023-08-15T20:54:52.629Z,24.17
2023-08-15T20:57:20.659Z,24.29
2023-08-15T20:59:48.796Z,24.33
2023-08-15T21:02:18.377Z,24.29
2023-08-15T21:04:46.598Z,24.36
2023-08-15T21:07:14.770Z,24.41
2023-08-15T21:09:42.886Z,24.33
2023-08-15T21:12:11.240Z,24.34
2023-08-15T21:14:39.232Z,24.33
2023-08-15T21:17:07.729Z,24.23
2023-08-15T21:19:37.703Z,24.08
2023-08-15T21:22:06.901Z,24.14
2023-08-15T21:24:35.429Z,24.09
2023-08-15T21:27:03.860Z,24.08
2023-08-15T21:29:32.599Z,24.12
2023-08-15T21:32:01.886Z,24.07
2023-08-15T21:34:30.597Z,24.08
2023-08-15T21:37:00.236Z,23.99
2023-08-15T21:39:28.819Z,24.06
2023-08-15T21:41:57.497Z,23.96
2023-08-15T21:44:26.019Z,23.97
2023-08-15T21:46:54.550Z,24.04
2023-08-15T21:49:22.951Z,24.07
2023-08-15T21:51:51.237Z,23.90
2023-08-15T21:54:21.869Z,23.87
2023-08-15T21:56:50.769Z,23.86
2023-08-15T21:59:19.267Z,23.86
2023-08-15T22:01:47.966Z,23.87
2023-08-15T22:04:16.327Z,23.76
2023-08-15T22:06:44.539Z,23.66
2023-08-15T22:09:12.658Z,23.86
2023-08-15T22:11:42.383Z,23.77
2023-08-15T22:14:10.666Z,23.67
2023-08-15T22:16:39.096Z,23.69
2023-08-15T22:19:07.446Z,23.58
2023-08-15T22:21:35.561Z,23.58
2023-08-15T22:24:04.879Z,23.61
2023-08-15T22:26:33.322Z,23.53
2023-08-15T22:29:02.745Z,23.64
2023-08-15T22:31:31.355Z,23.56
2023-08-15T22:34:01.017Z,23.48
2023-08-15T22:36:29.840Z,23.45
2023-08-15T22:38:57.995Z,23.39
2023-08-15T22:41:26.383Z,23.38
2023-08-15T22:43:54.593Z,23.29
2023-08-15T22:46:24.473Z,23.31
2023-08-15T22:48:53.281Z,23.26
2023-08-15T22:51:21.506Z,23.17
2023-08-15T22:53:49.582Z,23.11
2023-08-15T22:56:17.628Z,23.09
2023-08-15T22:58:46.038Z,23.00
2023-08-15T23:01:14.212Z,22.89
2023-08-15T23:03:44.403Z,22.83
2023-08-15T23:06:12.776Z,22.77
2023-08-15T23:08:41.939Z,22.77
2023-08-15T23:11:10.161Z,22.69
2023-08-15T23:13:38.388Z,22.66
2023-08-15T23:16:06.867Z,22.67
2023-08-15T23:18:35.103Z,22.66
2023-08-15T23:21:04.955Z,22.60
2023-08-15T23:23:33.211Z,22.63
2023-08-15T23:26:01.929Z,22.53
2023-08-15T23:28:29.952Z,22.49
2023-08-15T23:30:58.457Z,22.48
2023-08-15T23:33:26.990Z,22.47
2023-08-15T23:35:55.435Z,22.51
2023-08-15T23:38:25.030Z,22.52
2023-08-15T23:40:54.460Z,22.47
2023-08-15T23:43:22.777Z,22.50
2023-08-15T23:45:53.125Z,22.43
2023-08-15T23:48:21.429Z,22.42
2023-08-15T23:50:49.552Z,22.37
2023-08-15T23:53:18.008Z,22.32
2023-08-15T23:55:47.854Z,22.26
2023-08-15T23:58:15.972Z,22.24
